Terminal Aerodrome Forecast
Issued by NWS

Home | Current Version | Previous Version | Text Only | Print | Product List | Glossary On
Versions: 1 2 3 4 5 6 7 8 9 10 11 12 13 14 15 16 17 18
000
FTUS44 KEWX 041739
TAFSSF
TAF
KSSF 041739Z 0418/0518 14013KT P6SM OVC040
     FM042000 13013G23KT P6SM OVC040
     FM050000 12012KT P6SM OVC040
     FM050500 12008KT P6SM OVC015
     FM050800 13008KT P6SM OVC007
     FM051400 13012KT 6SM HZ OVC020=

USA.gov is the U.S. government's official web portal to all federal, state and local government web resources and services.